sensor_id;sensor_type;location;lat;lon;timestamp;temperature;humidity
22635;DHT22;11484;50.858;4.384;2023-05-10T00:01:05;15.10;99.90
22635;DHT22;11484;50.858;4.384;2023-05-10T00:03:31;15.10;99.90
22635;DHT22;11484;50.858;4.384;2023-05-10T00:05:56;15.10;99.90
22635;DHT22;11484;50.858;4.384;2023-05-10T00:08:22;15.20;99.90
22635;DHT22;11484;50.858;4.384;2023-05-10T00:10:48;15.10;99.90
22635;DHT22;11484;50.858;4.384;2023-05-10T00:13:14;15.10;99.90
22635;DHT22;11484;50.858;4.384;2023-05-10T00:15:40;15.10;99.90
22635;DHT22;11484;50.858;4.384;2023-05-10T00:18:05;15.10;99.90
22635;DHT22;11484;50.858;4.384;2023-05-10T00:20:31;15.00;99.90
22635;DHT22;11484;50.858;4.384;2023-05-10T00:22:57;15.00;99.90
22635;DHT22;11484;50.858;4.384;2023-05-10T00:25:22;14.90;99.90
22635;DHT22;11484;50.858;4.384;2023-05-10T00:27:48;15.00;99.90
22635;DHT22;11484;50.858;4.384;2023-05-10T00:30:15;15.00;99.90
22635;DHT22;11484;50.858;4.384;2023-05-10T00:32:40;15.00;99.90
22635;DHT22;11484;50.858;4.384;2023-05-10T00:35:06;15.00;99.90
22635;DHT22;11484;50.858;4.384;2023-05-10T00:37:32;15.00;99.90
22635;DHT22;11484;50.858;4.384;2023-05-10T00:39:58;15.00;99.90
22635;DHT22;11484;50.858;4.384;2023-05-10T00:42:24;14.90;99.90
22635;DHT22;11484;50.858;4.384;2023-05-10T00:44:49;14.80;99.90
22635;DHT22;11484;50.858;4.384;2023-05-10T00:47:16;14.80;99.90
22635;DHT22;11484;50.858;4.384;2023-05-10T00:49:42;14.80;99.90
22635;DHT22;11484;50.858;4.384;2023-05-10T00:52:09;14.90;99.90
22635;DHT22;11484;50.858;4.384;2023-05-10T00:54:35;15.00;99.90
22635;DHT22;11484;50.858;4.384;2023-05-10T00:57:01;15.00;99.90
22635;DHT22;11484;50.858;4.384;2023-05-10T00:59:26;15.00;99.90
22635;DHT22;11484;50.858;4.384;2023-05-10T01:01:53;14.90;99.90
22635;DHT22;11484;50.858;4.384;2023-05-10T01:04:19;14.90;99.90
22635;DHT22;11484;50.858;4.384;2023-05-10T01:06:51;14.90;99.90
22635;DHT22;11484;50.858;4.384;2023-05-10T01:09:18;15.00;99.90
22635;DHT22;11484;50.858;4.384;2023-05-10T01:11:44;15.10;99.90
22635;DHT22;11484;50.858;4.384;2023-05-10T01:14:10;15.10;99.90
22635;DHT22;11484;50.858;4.384;2023-05-10T01:16:38;15.10;99.90
22635;DHT22;11484;50.858;4.384;2023-05-10T01:19:06;15.00;99.90
22635;DHT22;11484;50.858;4.384;2023-05-10T01:33:04;14.90;99.90
22635;DHT22;11484;50.858;4.384;2023-05-10T01:35:45;14.80;99.90
22635;DHT22;11484;50.858;4.384;2023-05-10T01:41:07;15.00;99.90
22635;DHT22;11484;50.858;4.384;2023-05-10T01:44:00;15.00;99.90
22635;DHT22;11484;50.858;4.384;2023-05-10T01:46:37;15.00;99.90
22635;DHT22;11484;50.858;4.384;2023-05-10T01:49:10;15.00;99.90
22635;DHT22;11484;50.858;4.384;2023-05-10T01:51:49;15.00;99.90
22635;DHT22;11484;50.858;4.384;2023-05-10T01:54:19;14.90;99.90
22635;DHT22;11484;50.858;4.384;2023-05-10T01:56:48;14.90;99.90
22635;DHT22;11484;50.858;4.384;2023-05-10T01:59:18;14.80;99.90
22635;DHT22;11484;50.858;4.384;2023-05-10T02:01:46;14.70;99.90
22635;DHT22;11484;50.858;4.384;2023-05-10T02:04:15;14.70;99.90
22635;DHT22;11484;50.858;4.384;2023-05-10T02:06:42;14.80;99.90
22635;DHT22;11484;50.858;4.384;2023-05-10T02:09:10;14.80;99.90
22635;DHT22;11484;50.858;4.384;2023-05-10T02:11:39;14.70;99.90
22635;DHT22;11484;50.858;4.384;2023-05-10T02:14:07;14.70;99.90
22635;DHT22;11484;50.858;4.384;2023-05-10T02:16:35;14.80;99.90
22635;DHT22;11484;50.858;4.384;2023-05-10T02:19:02;14.90;99.90
22635;DHT22;11484;50.858;4.384;2023-05-10T02:21:29;14.90;99.90
22635;DHT22;11484;50.858;4.384;2023-05-10T02:23:57;15.00;99.90
22635;DHT22;11484;50.858;4.384;2023-05-10T02:26:26;14.90;99.90
22635;DHT22;11484;50.858;4.384;2023-05-10T02:28:53;15.00;99.90
22635;DHT22;11484;50.858;4.384;2023-05-10T02:31:20;15.00;99.90
22635;DHT22;11484;50.858;4.384;2023-05-10T02:33:48;14.90;99.90
22635;DHT22;11484;50.858;4.384;2023-05-10T02:36:15;14.80;99.90
22635;DHT22;11484;50.858;4.384;2023-05-10T02:38:42;14.80;99.90
22635;DHT22;11484;50.858;4.384;2023-05-10T02:41:10;14.80;99.90
22635;DHT22;11484;50.858;4.384;2023-05-10T02:43:37;14.80;99.90
22635;DHT22;11484;50.858;4.384;2023-05-10T02:46:04;14.80;99.90
22635;DHT22;11484;50.858;4.384;2023-05-10T02:48:30;14.90;99.90
22635;DHT22;11484;50.858;4.384;2023-05-10T02:51:00;14.80;99.90
22635;DHT22;11484;50.858;4.384;2023-05-10T02:53:31;14.80;99.90
22635;DHT22;11484;50.858;4.384;2023-05-10T02:56:00;14.90;99.90
22635;DHT22;11484;50.858;4.384;2023-05-10T02:58:27;14.90;99.90
22635;DHT22;11484;50.858;4.384;2023-05-10T03:00:52;14.90;99.90
22635;DHT22;11484;50.858;4.384;2023-05-10T03:03:19;14.90;99.90
22635;DHT22;11484;50.858;4.384;2023-05-10T03:05:48;14.90;99.90
22635;DHT22;11484;50.858;4.384;2023-05-10T03:08:14;14.90;99.90
22635;DHT22;11484;50.858;4.384;2023-05-10T03:10:55;14.80;99.90
22635;DHT22;11484;50.858;4.384;2023-05-10T03:14:04;14.80;99.90
22635;DHT22;11484;50.858;4.384;2023-05-10T03:16:41;14.90;99.90
22635;DHT22;11484;50.858;4.384;2023-05-10T03:19:21;14.80;99.90
22635;DHT22;11484;50.858;4.384;2023-05-10T03:21:51;14.70;99.90
22635;DHT22;11484;50.858;4.384;2023-05-10T03:24:21;14.60;99.90
22635;DHT22;11484;50.858;4.384;2023-05-10T03:26:49;14.50;99.90
22635;DHT22;11484;50.858;4.384;2023-05-10T03:29:15;14.60;99.90
22635;DHT22;11484;50.858;4.384;2023-05-10T03:31:42;14.60;99.90
22635;DHT22;11484;50.858;4.384;2023-05-10T03:34:08;14.60;99.90
22635;DHT22;11484;50.858;4.384;2023-05-10T03:36:33;14.70;99.90
22635;DHT22;11484;50.858;4.384;2023-05-10T03:38:59;14.70;99.90
22635;DHT22;11484;50.858;4.384;2023-05-10T03:41:25;14.80;99.90
22635;DHT22;11484;50.858;4.384;2023-05-10T03:43:51;14.80;99.90
22635;DHT22;11484;50.858;4.384;2023-05-10T03:46:17;14.90;99.90
22635;DHT22;11484;50.858;4.384;2023-05-10T03:48:42;14.90;99.90
22635;DHT22;11484;50.858;4.384;2023-05-10T03:51:08;14.80;99.90
22635;DHT22;11484;50.858;4.384;2023-05-10T03:53:34;14.80;99.90
22635;DHT22;11484;50.858;4.384;2023-05-10T03:55:59;14.80;99.90
22635;DHT22;11484;50.858;4.384;2023-05-10T03:58:25;14.70;99.90
22635;DHT22;11484;50.858;4.384;2023-05-10T04:00:51;14.70;99.90
22635;DHT22;11484;50.858;4.384;2023-05-10T04:03:17;14.70;99.90
22635;DHT22;11484;50.858;4.384;2023-05-10T04:05:43;14.60;99.90
22635;DHT22;11484;50.858;4.384;2023-05-10T04:08:09;14.70;99.90
22635;DHT22;11484;50.858;4.384;2023-05-10T04:10:35;14.80;99.90
22635;DHT22;11484;50.858;4.384;2023-05-10T04:13:00;14.70;99.90
22635;DHT22;11484;50.858;4.384;2023-05-10T04:15:26;14.80;99.90
22635;DHT22;11484;50.858;4.384;2023-05-10T04:17:52;14.80;99.90
22635;DHT22;11484;50.858;4.384;2023-05-10T04:20:19;14.70;99.90
22635;DHT22;11484;50.858;4.384;2023-05-10T04:22:44;14.80;99.90
22635;DHT22;11484;50.858;4.384;2023-05-10T04:25:10;14.70;99.90
22635;DHT22;11484;50.858;4.384;2023-05-10T04:27:36;14.60;99.90
22635;DHT22;11484;50.858;4.384;2023-05-10T04:30:02;14.60;99.90
22635;DHT22;11484;50.858;4.384;2023-05-10T04:32:31;14.70;99.90
22635;DHT22;11484;50.858;4.384;2023-05-10T04:34:57;14.70;99.90
22635;DHT22;11484;50.858;4.384;2023-05-10T04:37:22;14.60;99.90
22635;DHT22;11484;50.858;4.384;2023-05-10T04:39:48;14.70;99.90
22635;DHT22;11484;50.858;4.384;2023-05-10T04:42:14;14.70;99.90
22635;DHT22;11484;50.858;4.384;2023-05-10T04:44:40;14.70;99.90
22635;DHT22;11484;50.858;4.384;2023-05-10T04:47:06;14.80;99.90
22635;DHT22;11484;50.858;4.384;2023-05-10T04:49:32;14.80;99.90
22635;DHT22;11484;50.858;4.384;2023-05-10T04:51:57;14.80;99.90
22635;DHT22;11484;50.858;4.384;2023-05-10T04:54:23;14.80;99.90
22635;DHT22;11484;50.858;4.384;2023-05-10T04:56:49;14.80;99.90
22635;DHT22;11484;50.858;4.384;2023-05-10T04:59:14;14.80;99.90
22635;DHT22;11484;50.858;4.384;2023-05-10T05:01:40;14.90;99.90
22635;DHT22;11484;50.858;4.384;2023-05-10T05:04:06;14.90;99.90
22635;DHT22;11484;50.858;4.384;2023-05-10T05:06:32;15.00;99.90
22635;DHT22;11484;50.858;4.384;2023-05-10T05:08:58;15.00;99.90
22635;DHT22;11484;50.858;4.384;2023-05-10T05:11:23;15.00;99.90
22635;DHT22;11484;50.858;4.384;2023-05-10T05:13:50;15.00;99.90
22635;DHT22;11484;50.858;4.384;2023-05-10T05:16:16;15.00;99.90
22635;DHT22;11484;50.858;4.384;2023-05-10T05:18:42;15.00;99.90
22635;DHT22;11484;50.858;4.384;2023-05-10T05:21:17;15.00;99.90
22635;DHT22;11484;50.858;4.384;2023-05-10T05:23:43;15.00;99.90
22635;DHT22;11484;50.858;4.384;2023-05-10T05:26:09;15.00;99.90
22635;DHT22;11484;50.858;4.384;2023-05-10T05:28:36;15.10;99.90
22635;DHT22;11484;50.858;4.384;2023-05-10T05:31:05;15.10;99.90
22635;DHT22;11484;50.858;4.384;2023-05-10T05:33:31;15.20;99.90
22635;DHT22;11484;50.858;4.384;2023-05-10T05:35:57;15.20;99.90
22635;DHT22;11484;50.858;4.384;2023-05-10T05:38:22;15.20;99.90
22635;DHT22;11484;50.858;4.384;2023-05-10T05:40:49;15.20;99.90
22635;DHT22;11484;50.858;4.384;2023-05-10T05:43:14;15.20;99.90
22635;DHT22;11484;50.858;4.384;2023-05-10T05:45:40;15.30;99.90
22635;DHT22;11484;50.858;4.384;2023-05-10T05:48:06;15.40;99.90
22635;DHT22;11484;50.858;4.384;2023-05-10T05:50:32;15.40;99.90
22635;DHT22;11484;50.858;4.384;2023-05-10T05:52:57;15.40;99.90
22635;DHT22;11484;50.858;4.384;2023-05-10T05:55:23;15.40;99.90
22635;DHT22;11484;50.858;4.384;2023-05-10T05:57:49;15.40;99.90
22635;DHT22;11484;50.858;4.384;2023-05-10T06:00:15;15.40;99.90
22635;DHT22;11484;50.858;4.384;2023-05-10T06:02:41;15.40;99.90
22635;DHT22;11484;50.858;4.384;2023-05-10T06:05:07;15.50;99.90
22635;DHT22;11484;50.858;4.384;2023-05-10T06:07:33;15.60;99.90
22635;DHT22;11484;50.858;4.384;2023-05-10T06:09:58;15.70;99.90
22635;DHT22;11484;50.858;4.384;2023-05-10T06:12:24;15.70;99.90
22635;DHT22;11484;50.858;4.384;2023-05-10T06:14:50;15.80;99.90
22635;DHT22;11484;50.858;4.384;2023-05-10T06:17:15;15.70;99.90
22635;DHT22;11484;50.858;4.384;2023-05-10T06:19:41;15.80;99.90
22635;DHT22;11484;50.858;4.384;2023-05-10T06:22:07;15.80;99.90
22635;DHT22;11484;50.858;4.384;2023-05-10T06:24:32;15.70;99.90
22635;DHT22;11484;50.858;4.384;2023-05-10T06:26:58;15.60;99.90
22635;DHT22;11484;50.858;4.384;2023-05-10T06:29:26;15.50;99.90
22635;DHT22;11484;50.858;4.384;2023-05-10T06:31:51;15.60;99.90
22635;DHT22;11484;50.858;4.384;2023-05-10T06:34:17;15.50;99.90
22635;DHT22;11484;50.858;4.384;2023-05-10T06:36:43;15.40;99.90
22635;DHT22;11484;50.858;4.384;2023-05-10T06:39:08;15.40;99.90
22635;DHT22;11484;50.858;4.384;2023-05-10T06:41:34;15.60;99.90
22635;DHT22;11484;50.858;4.384;2023-05-10T06:44:00;15.50;99.90
22635;DHT22;11484;50.858;4.384;2023-05-10T06:46:25;15.50;99.90
22635;DHT22;11484;50.858;4.384;2023-05-10T06:48:51;15.40;99.90
22635;DHT22;11484;50.858;4.384;2023-05-10T06:51:16;15.30;99.90
22635;DHT22;11484;50.858;4.384;2023-05-10T06:53:43;15.30;99.90
22635;DHT22;11484;50.858;4.384;2023-05-10T06:56:08;15.30;99.90
22635;DHT22;11484;50.858;4.384;2023-05-10T06:58:34;15.30;99.90
22635;DHT22;11484;50.858;4.384;2023-05-10T07:01:03;15.30;99.90
22635;DHT22;11484;50.858;4.384;2023-05-10T07:03:29;15.30;99.90
22635;DHT22;11484;50.858;4.384;2023-05-10T07:06:00;15.30;99.90
22635;DHT22;11484;50.858;4.384;2023-05-10T07:08:26;15.30;99.90
22635;DHT22;11484;50.858;4.384;2023-05-10T07:10:52;15.30;99.90
22635;DHT22;11484;50.858;4.384;2023-05-10T07:13:18;15.20;99.90
22635;DHT22;11484;50.858;4.384;2023-05-10T07:15:43;15.30;99.90
22635;DHT22;11484;50.858;4.384;2023-05-10T07:18:09;15.30;99.90
22635;DHT22;11484;50.858;4.384;2023-05-10T07:20:35;15.20;99.90
22635;DHT22;11484;50.858;4.384;2023-05-10T07:23:01;15.20;99.90
22635;DHT22;11484;50.858;4.384;2023-05-10T07:25:26;15.20;99.90
22635;DHT22;11484;50.858;4.384;2023-05-10T07:27:52;14.90;99.90
22635;DHT22;11484;50.858;4.384;2023-05-10T07:30:18;14.90;99.90
22635;DHT22;11484;50.858;4.384;2023-05-10T07:32:43;15.00;99.90
22635;DHT22;11484;50.858;4.384;2023-05-10T07:35:09;15.00;99.90
22635;DHT22;11484;50.858;4.384;2023-05-10T07:37:35;15.10;99.90
22635;DHT22;11484;50.858;4.384;2023-05-10T07:40:01;15.00;99.90
22635;DHT22;11484;50.858;4.384;2023-05-10T07:42:27;15.00;99.90
22635;DHT22;11484;50.858;4.384;2023-05-10T07:44:53;14.90;99.90
22635;DHT22;11484;50.858;4.384;2023-05-10T07:47:21;14.90;99.90
22635;DHT22;11484;50.858;4.384;2023-05-10T07:49:47;14.90;99.90
22635;DHT22;11484;50.858;4.384;2023-05-10T07:52:13;14.80;99.90
22635;DHT22;11484;50.858;4.384;2023-05-10T07:54:38;14.70;99.90
22635;DHT22;11484;50.858;4.384;2023-05-10T07:57:04;14.70;99.90
22635;DHT22;11484;50.858;4.384;2023-05-10T07:59:30;14.70;99.90
22635;DHT22;11484;50.858;4.384;2023-05-10T08:01:55;14.70;99.90
22635;DHT22;11484;50.858;4.384;2023-05-10T08:04:21;14.90;99.90
22635;DHT22;11484;50.858;4.384;2023-05-10T08:06:47;14.90;99.90
22635;DHT22;11484;50.858;4.384;2023-05-10T08:09:13;14.90;99.90
22635;DHT22;11484;50.858;4.384;2023-05-10T08:11:38;15.00;99.90
22635;DHT22;11484;50.858;4.384;2023-05-10T08:14:04;15.10;99.90
22635;DHT22;11484;50.858;4.384;2023-05-10T08:16:30;15.20;99.90
22635;DHT22;11484;50.858;4.384;2023-05-10T08:18:55;15.30;99.90
22635;DHT22;11484;50.858;4.384;2023-05-10T08:21:21;15.40;99.90
22635;DHT22;11484;50.858;4.384;2023-05-10T08:23:47;15.50;99.90
22635;DHT22;11484;50.858;4.384;2023-05-10T08:26:12;15.50;99.90
22635;DHT22;11484;50.858;4.384;2023-05-10T08:28:38;15.60;99.90
22635;DHT22;11484;50.858;4.384;2023-05-10T08:31:04;15.80;99.90
22635;DHT22;11484;50.858;4.384;2023-05-10T08:33:30;15.70;99.90
22635;DHT22;11484;50.858;4.384;2023-05-10T08:35:56;15.80;99.90
22635;DHT22;11484;50.858;4.384;2023-05-10T08:38:21;15.90;99.90
22635;DHT22;11484;50.858;4.384;2023-05-10T08:40:49;16.10;99.90
22635;DHT22;11484;50.858;4.384;2023-05-10T08:43:16;16.20;99.90
22635;DHT22;11484;50.858;4.384;2023-05-10T08:45:43;16.20;99.90
22635;DHT22;11484;50.858;4.384;2023-05-10T08:48:12;16.30;99.90
22635;DHT22;11484;50.858;4.384;2023-05-10T08:50:40;16.30;99.90
22635;DHT22;11484;50.858;4.384;2023-05-10T08:53:09;16.40;99.90
22635;DHT22;11484;50.858;4.384;2023-05-10T08:55:36;16.40;99.90
22635;DHT22;11484;50.858;4.384;2023-05-10T08:58:04;16.40;99.90
22635;DHT22;11484;50.858;4.384;2023-05-10T09:00:30;16.40;99.90
22635;DHT22;11484;50.858;4.384;2023-05-10T09:02:58;16.50;99.90
22635;DHT22;11484;50.858;4.384;2023-05-10T09:05:24;16.50;99.90
22635;DHT22;11484;50.858;4.384;2023-05-10T09:07:49;16.30;99.90
22635;DHT22;11484;50.858;4.384;2023-05-10T09:10:16;16.20;99.90
22635;DHT22;11484;50.858;4.384;2023-05-10T09:12:42;16.00;99.90
22635;DHT22;11484;50.858;4.384;2023-05-10T09:15:09;16.10;99.90
22635;DHT22;11484;50.858;4.384;2023-05-10T09:17:36;16.10;99.90
22635;DHT22;11484;50.858;4.384;2023-05-10T09:20:03;16.00;99.90
22635;DHT22;11484;50.858;4.384;2023-05-10T09:22:33;15.90;99.90
22635;DHT22;11484;50.858;4.384;2023-05-10T09:25:09;15.70;99.90
22635;DHT22;11484;50.858;4.384;2023-05-10T09:27:37;15.70;99.90
22635;DHT22;11484;50.858;4.384;2023-05-10T09:30:04;15.80;99.90
22635;DHT22;11484;50.858;4.384;2023-05-10T09:32:40;15.80;99.90
22635;DHT22;11484;50.858;4.384;2023-05-10T09:35:13;15.90;99.90
22635;DHT22;11484;50.858;4.384;2023-05-10T09:37:40;15.80;99.90
22635;DHT22;11484;50.858;4.384;2023-05-10T09:40:17;15.80;99.90
22635;DHT22;11484;50.858;4.384;2023-05-10T09:42:58;15.70;99.90
22635;DHT22;11484;50.858;4.384;2023-05-10T09:45:26;15.70;99.90
22635;DHT22;11484;50.858;4.384;2023-05-10T09:47:52;15.70;99.90
22635;DHT22;11484;50.858;4.384;2023-05-10T09:50:19;15.70;99.90
22635;DHT22;11484;50.858;4.384;2023-05-10T09:55:16;15.40;99.90
22635;DHT22;11484;50.858;4.384;2023-05-10T09:57:42;15.20;99.90
22635;DHT22;11484;50.858;4.384;2023-05-10T10:00:09;15.10;99.90
22635;DHT22;11484;50.858;4.384;2023-05-10T10:02:35;15.30;99.90
22635;DHT22;11484;50.858;4.384;2023-05-10T10:05:02;15.40;99.90
22635;DHT22;11484;50.858;4.384;2023-05-10T10:07:28;15.50;99.90
22635;DHT22;11484;50.858;4.384;2023-05-10T10:09:55;15.70;99.90
22635;DHT22;11484;50.858;4.384;2023-05-10T10:12:21;15.80;99.90
22635;DHT22;11484;50.858;4.384;2023-05-10T10:14:50;15.80;99.90
22635;DHT22;11484;50.858;4.384;2023-05-10T10:17:16;15.80;99.90
22635;DHT22;11484;50.858;4.384;2023-05-10T10:19:42;15.70;99.90
22635;DHT22;11484;50.858;4.384;2023-05-10T10:22:09;15.90;99.90
22635;DHT22;11484;50.858;4.384;2023-05-10T10:24:38;15.90;99.90
22635;DHT22;11484;50.858;4.384;2023-05-10T10:27:19;15.80;99.90
22635;DHT22;11484;50.858;4.384;2023-05-10T10:35:55;15.70;99.90
22635;DHT22;11484;50.858;4.384;2023-05-10T10:38:21;15.80;99.90
22635;DHT22;11484;50.858;4.384;2023-05-10T10:40:48;15.90;99.90
22635;DHT22;11484;50.858;4.384;2023-05-10T10:43:24;16.00;99.90
22635;DHT22;11484;50.858;4.384;2023-05-10T10:46:14;16.00;99.90
22635;DHT22;11484;50.858;4.384;2023-05-10T10:48:41;16.00;99.90
22635;DHT22;11484;50.858;4.384;2023-05-10T10:51:07;16.00;99.90
22635;DHT22;11484;50.858;4.384;2023-05-10T10:53:33;16.10;99.90
22635;DHT22;11484;50.858;4.384;2023-05-10T10:56:06;16.10;99.90
22635;DHT22;11484;50.858;4.384;2023-05-10T10:58:33;16.20;99.90
22635;DHT22;11484;50.858;4.384;2023-05-10T11:01:16;16.30;99.90
22635;DHT22;11484;50.858;4.384;2023-05-10T11:06:32;16.30;99.90
22635;DHT22;11484;50.858;4.384;2023-05-10T11:08:59;16.30;99.90
22635;DHT22;11484;50.858;4.384;2023-05-10T11:11:30;16.40;99.90
22635;DHT22;11484;50.858;4.384;2023-05-10T11:14:03;16.40;99.90
22635;DHT22;11484;50.858;4.384;2023-05-10T11:16:41;16.40;99.90
22635;DHT22;11484;50.858;4.384;2023-05-10T11:19:10;16.50;99.90
22635;DHT22;11484;50.858;4.384;2023-05-10T11:21:47;16.60;99.90
22635;DHT22;11484;50.858;4.384;2023-05-10T11:24:18;16.60;99.90
22635;DHT22;11484;50.858;4.384;2023-05-10T11:26:45;16.70;99.90
22635;DHT22;11484;50.858;4.384;2023-05-10T11:29:12;16.90;99.90
22635;DHT22;11484;50.858;4.384;2023-05-10T11:31:43;16.90;99.90
22635;DHT22;11484;50.858;4.384;2023-05-10T11:34:09;17.00;99.90
22635;DHT22;11484;50.858;4.384;2023-05-10T11:36:36;17.10;99.90
22635;DHT22;11484;50.858;4.384;2023-05-10T11:39:02;17.30;99.90
22635;DHT22;11484;50.858;4.384;2023-05-10T11:41:29;17.40;99.90
22635;DHT22;11484;50.858;4.384;2023-05-10T11:43:56;17.50;99.90
22635;DHT22;11484;50.858;4.384;2023-05-10T11:46:26;17.70;99.90
22635;DHT22;11484;50.858;4.384;2023-05-10T11:48:55;17.90;99.90
22635;DHT22;11484;50.858;4.384;2023-05-10T11:51:25;18.00;99.90
22635;DHT22;11484;50.858;4.384;2023-05-10T11:53:54;18.10;99.90
22635;DHT22;11484;50.858;4.384;2023-05-10T11:56:20;18.20;99.90
22635;DHT22;11484;50.858;4.384;2023-05-10T11:58:53;18.20;99.90
22635;DHT22;11484;50.858;4.384;2023-05-10T12:01:20;18.20;99.90
22635;DHT22;11484;50.858;4.384;2023-05-10T12:03:50;18.20;99.90
22635;DHT22;11484;50.858;4.384;2023-05-10T12:06:16;18.20;99.90
22635;DHT22;11484;50.858;4.384;2023-05-10T12:08:47;18.20;99.90
22635;DHT22;11484;50.858;4.384;2023-05-10T12:11:13;18.30;99.90
22635;DHT22;11484;50.858;4.384;2023-05-10T12:13:43;18.40;99.90
22635;DHT22;11484;50.858;4.384;2023-05-10T12:16:19;18.40;99.90
22635;DHT22;11484;50.858;4.384;2023-05-10T12:18:48;18.40;99.90
22635;DHT22;11484;50.858;4.384;2023-05-10T12:21:15;18.40;99.90
22635;DHT22;11484;50.858;4.384;2023-05-10T12:23:41;18.50;99.90
22635;DHT22;11484;50.858;4.384;2023-05-10T12:26:09;18.60;99.90
22635;DHT22;11484;50.858;4.384;2023-05-10T12:28:35;18.60;99.90
22635;DHT22;11484;50.858;4.384;2023-05-10T12:31:02;18.40;99.90
22635;DHT22;11484;50.858;4.384;2023-05-10T12:33:44;18.20;99.90
22635;DHT22;11484;50.858;4.384;2023-05-10T12:36:12;18.30;99.90
22635;DHT22;11484;50.858;4.384;2023-05-10T12:38:40;18.30;99.90
22635;DHT22;11484;50.858;4.384;2023-05-10T12:41:14;18.60;99.90
22635;DHT22;11484;50.858;4.384;2023-05-10T12:43:40;18.70;99.90
22635;DHT22;11484;50.858;4.384;2023-05-10T12:46:10;19.00;99.90
22635;DHT22;11484;50.858;4.384;2023-05-10T12:48:37;19.10;99.90
22635;DHT22;11484;50.858;4.384;2023-05-10T12:51:03;19.20;99.90
22635;DHT22;11484;50.858;4.384;2023-05-10T12:53:30;19.30;99.90
22635;DHT22;11484;50.858;4.384;2023-05-10T12:55:56;19.50;99.90
22635;DHT22;11484;50.858;4.384;2023-05-10T12:58:21;19.30;99.90
22635;DHT22;11484;50.858;4.384;2023-05-10T13:00:47;19.30;99.90
22635;DHT22;11484;50.858;4.384;2023-05-10T13:03:13;19.20;99.90
22635;DHT22;11484;50.858;4.384;2023-05-10T13:05:39;19.30;99.90
22635;DHT22;11484;50.858;4.384;2023-05-10T13:08:05;19.30;99.90
22635;DHT22;11484;50.858;4.384;2023-05-10T13:10:31;19.30;99.90
22635;DHT22;11484;50.858;4.384;2023-05-10T13:12:58;19.30;99.90
22635;DHT22;11484;50.858;4.384;2023-05-10T13:15:24;19.30;99.90
22635;DHT22;11484;50.858;4.384;2023-05-10T13:17:50;19.30;99.90
22635;DHT22;11484;50.858;4.384;2023-05-10T13:20:16;19.30;99.90
22635;DHT22;11484;50.858;4.384;2023-05-10T13:22:43;19.40;99.90
22635;DHT22;11484;50.858;4.384;2023-05-10T13:25:09;19.50;99.90
22635;DHT22;11484;50.858;4.384;2023-05-10T13:27:35;19.50;99.90
22635;DHT22;11484;50.858;4.384;2023-05-10T13:30:02;19.40;99.90
22635;DHT22;11484;50.858;4.384;2023-05-10T13:32:28;19.50;99.90
22635;DHT22;11484;50.858;4.384;2023-05-10T13:34:55;19.60;99.90
22635;DHT22;11484;50.858;4.384;2023-05-10T13:37:20;19.50;99.90
22635;DHT22;11484;50.858;4.384;2023-05-10T13:39:47;19.50;99.90
22635;DHT22;11484;50.858;4.384;2023-05-10T13:42:13;19.40;99.90
22635;DHT22;11484;50.858;4.384;2023-05-10T13:44:38;19.30;99.90
22635;DHT22;11484;50.858;4.384;2023-05-10T13:47:05;19.20;99.90
22635;DHT22;11484;50.858;4.384;2023-05-10T13:49:30;19.20;99.90
22635;DHT22;11484;50.858;4.384;2023-05-10T13:51:56;19.20;99.90
22635;DHT22;11484;50.858;4.384;2023-05-10T13:54:23;19.30;99.90
22635;DHT22;11484;50.858;4.384;2023-05-10T13:56:48;19.50;99.90
22635;DHT22;11484;50.858;4.384;2023-05-10T13:59:14;19.60;99.90
22635;DHT22;11484;50.858;4.384;2023-05-10T14:01:41;19.50;99.90
22635;DHT22;11484;50.858;4.384;2023-05-10T14:04:08;19.50;99.90
22635;DHT22;11484;50.858;4.384;2023-05-10T14:06:36;19.40;99.90
22635;DHT22;11484;50.858;4.384;2023-05-10T14:09:02;19.20;99.90
22635;DHT22;11484;50.858;4.384;2023-05-10T14:11:28;19.30;99.90
22635;DHT22;11484;50.858;4.384;2023-05-10T14:13:54;19.30;99.90
22635;DHT22;11484;50.858;4.384;2023-05-10T14:16:19;19.40;99.90
22635;DHT22;11484;50.858;4.384;2023-05-10T14:18:45;19.30;99.90
22635;DHT22;11484;50.858;4.384;2023-05-10T14:21:11;19.20;99.90
22635;DHT22;11484;50.858;4.384;2023-05-10T14:23:37;19.30;99.90
22635;DHT22;11484;50.858;4.384;2023-05-10T14:26:03;19.20;99.90
22635;DHT22;11484;50.858;4.384;2023-05-10T14:28:29;19.20;99.90
22635;DHT22;11484;50.858;4.384;2023-05-10T14:30:55;19.20;99.90
22635;DHT22;11484;50.858;4.384;2023-05-10T14:33:20;19.10;99.90
22635;DHT22;11484;50.858;4.384;2023-05-10T14:35:46;19.10;99.90
22635;DHT22;11484;50.858;4.384;2023-05-10T14:38:13;19.30;99.90
22635;DHT22;11484;50.858;4.384;2023-05-10T14:40:39;19.30;99.90
22635;DHT22;11484;50.858;4.384;2023-05-10T14:43:04;19.30;99.90
22635;DHT22;11484;50.858;4.384;2023-05-10T14:45:30;19.40;99.90
22635;DHT22;11484;50.858;4.384;2023-05-10T14:47:57;19.20;99.90
22635;DHT22;11484;50.858;4.384;2023-05-10T14:50:23;19.00;99.90
22635;DHT22;11484;50.858;4.384;2023-05-10T14:52:48;18.80;99.90
22635;DHT22;11484;50.858;4.384;2023-05-10T14:55:15;18.70;99.90
22635;DHT22;11484;50.858;4.384;2023-05-10T14:57:41;18.60;99.90
22635;DHT22;11484;50.858;4.384;2023-05-10T15:00:07;18.50;99.90
22635;DHT22;11484;50.858;4.384;2023-05-10T15:02:33;18.40;99.90
22635;DHT22;11484;50.858;4.384;2023-05-10T15:04:59;18.40;99.90
22635;DHT22;11484;50.858;4.384;2023-05-10T15:07:24;18.30;99.90
22635;DHT22;11484;50.858;4.384;2023-05-10T15:09:51;18.10;99.90
22635;DHT22;11484;50.858;4.384;2023-05-10T15:12:20;17.90;99.90
22635;DHT22;11484;50.858;4.384;2023-05-10T15:14:46;17.90;99.90
22635;DHT22;11484;50.858;4.384;2023-05-10T15:17:12;17.90;99.90
22635;DHT22;11484;50.858;4.384;2023-05-10T15:19:37;17.90;99.90
22635;DHT22;11484;50.858;4.384;2023-05-10T15:22:04;17.90;99.90
22635;DHT22;11484;50.858;4.384;2023-05-10T15:24:31;17.80;99.90
22635;DHT22;11484;50.858;4.384;2023-05-10T15:26:56;17.80;99.90
22635;DHT22;11484;50.858;4.384;2023-05-10T15:29:22;17.80;99.90
22635;DHT22;11484;50.858;4.384;2023-05-10T15:31:49;17.90;99.90
22635;DHT22;11484;50.858;4.384;2023-05-10T15:34:16;18.00;99.90
22635;DHT22;11484;50.858;4.384;2023-05-10T15:36:42;18.00;99.90
22635;DHT22;11484;50.858;4.384;2023-05-10T15:39:07;18.10;99.90
22635;DHT22;11484;50.858;4.384;2023-05-10T15:41:35;18.20;99.90
22635;DHT22;11484;50.858;4.384;2023-05-10T15:44:01;18.20;99.90
22635;DHT22;11484;50.858;4.384;2023-05-10T15:46:30;18.20;99.90
22635;DHT22;11484;50.858;4.384;2023-05-10T15:48:57;18.20;99.90
22635;DHT22;11484;50.858;4.384;2023-05-10T15:51:23;18.10;99.90
22635;DHT22;11484;50.858;4.384;2023-05-10T15:53:52;18.20;99.90
22635;DHT22;11484;50.858;4.384;2023-05-10T15:56:18;18.10;99.90